sensor_id;sensor_type;location;lat;lon;timestamp;temperature;humidity
6581;DHT22;3324;50.796;7.228;2023-02-16T09:08:21;4.90;99.90
6581;DHT22;3324;50.796;7.228;2023-02-16T09:10:46;4.90;99.90
6581;DHT22;3324;50.796;7.228;2023-02-16T09:13:12;5.00;99.90
6581;DHT22;3324;50.796;7.228;2023-02-16T09:15:42;5.00;99.90
6581;DHT22;3324;50.796;7.228;2023-02-16T09:18:08;5.10;99.90
6581;DHT22;3324;50.796;7.228;2023-02-16T09:20:41;5.10;99.90
6581;DHT22;3324;50.796;7.228;2023-02-16T09:23:08;5.30;99.90
6581;DHT22;3324;50.796;7.228;2023-02-16T09:25:36;5.30;99.90
6581;DHT22;3324;50.796;7.228;2023-02-16T09:28:03;5.40;99.90
6581;DHT22;3324;50.796;7.228;2023-02-16T09:30:29;5.50;99.90
6581;DHT22;3324;50.796;7.228;2023-02-16T09:32:57;5.60;99.90
6581;DHT22;3324;50.796;7.228;2023-02-16T09:35:23;5.70;99.90
6581;DHT22;3324;50.796;7.228;2023-02-16T09:37:50;5.70;99.90
6581;DHT22;3324;50.796;7.228;2023-02-16T09:40:15;5.80;99.90
6581;DHT22;3324;50.796;7.228;2023-02-16T09:45:26;5.80;99.90
6581;DHT22;3324;50.796;7.228;2023-02-16T09:47:52;5.80;99.90
6581;DHT22;3324;50.796;7.228;2023-02-16T09:50:30;5.80;99.90
6581;DHT22;3324;50.796;7.228;2023-02-16T09:53:18;5.80;99.90
6581;DHT22;3324;50.796;7.228;2023-02-16T09:55:53;6.00;99.90
6581;DHT22;3324;50.796;7.228;2023-02-16T09:58:38;6.20;99.90
6581;DHT22;3324;50.796;7.228;2023-02-16T10:01:18;6.40;99.90
6581;DHT22;3324;50.796;7.228;2023-02-16T10:09:14;6.80;99.90
6581;DHT22;3324;50.796;7.228;2023-02-16T10:11:51;7.00;99.90
6581;DHT22;3324;50.796;7.228;2023-02-16T10:17:28;7.30;99.90
6581;DHT22;3324;50.796;7.228;2023-02-16T10:22:51;7.50;99.90
6581;DHT22;3324;50.796;7.228;2023-02-16T10:28:18;7.80;99.90
6581;DHT22;3324;50.796;7.228;2023-02-16T10:31:00;7.90;99.90
6581;DHT22;3324;50.796;7.228;2023-02-16T10:33:50;8.00;99.90
6581;DHT22;3324;50.796;7.228;2023-02-16T10:39:39;8.20;99.90
6581;DHT22;3324;50.796;7.228;2023-02-16T10:44:58;8.50;99.90
6581;DHT22;3324;50.796;7.228;2023-02-16T10:47:34;8.50;99.90
6581;DHT22;3324;50.796;7.228;2023-02-16T10:50:01;8.50;99.90
6581;DHT22;3324;50.796;7.228;2023-02-16T10:52:31;8.70;99.90
6581;DHT22;3324;50.796;7.228;2023-02-16T10:54:58;8.70;99.90
6581;DHT22;3324;50.796;7.228;2023-02-16T10:57:29;8.70;99.90
6581;DHT22;3324;50.796;7.228;2023-02-16T10:59:57;8.70;99.90
6581;DHT22;3324;50.796;7.228;2023-02-16T11:02:38;8.70;99.90
6581;DHT22;3324;50.796;7.228;2023-02-16T11:07:55;8.80;99.90
6581;DHT22;3324;50.796;7.228;2023-02-16T11:10:34;8.90;99.90
6581;DHT22;3324;50.796;7.228;2023-02-16T11:13:00;8.90;99.90
6581;DHT22;3324;50.796;7.228;2023-02-16T11:15:26;9.00;99.90
6581;DHT22;3324;50.796;7.228;2023-02-16T11:20:32;9.10;99.90
6581;DHT22;3324;50.796;7.228;2023-02-16T11:26:37;9.20;99.90
6581;DHT22;3324;50.796;7.228;2023-02-16T11:28:42;9.30;99.90
6581;DHT22;3324;50.796;7.228;2023-02-16T11:33:34;9.60;99.90
6581;DHT22;3324;50.796;7.228;2023-02-16T11:36:00;9.60;99.90
6581;DHT22;3324;50.796;7.228;2023-02-16T11:38:34;9.70;99.90
6581;DHT22;3324;50.796;7.228;2023-02-16T11:41:04;9.80;99.90
6581;DHT22;3324;50.796;7.228;2023-02-16T11:43:36;9.80;99.90
6581;DHT22;3324;50.796;7.228;2023-02-16T11:48:32;10.10;99.90
6581;DHT22;3324;50.796;7.228;2023-02-16T11:51:07;10.10;99.90
6581;DHT22;3324;50.796;7.228;2023-02-16T11:53:35;10.30;99.90
6581;DHT22;3324;50.796;7.228;2023-02-16T11:56:26;10.40;99.90
6581;DHT22;3324;50.796;7.228;2023-02-16T11:59:21;10.40;99.90
6581;DHT22;3324;50.796;7.228;2023-02-16T12:10:52;11.00;99.90
6581;DHT22;3324;50.796;7.228;2023-02-16T12:18:13;11.10;99.90
6581;DHT22;3324;50.796;7.228;2023-02-16T12:28:48;11.10;99.90
6581;DHT22;3324;50.796;7.228;2023-02-16T12:31:41;11.20;99.90
6581;DHT22;3324;50.796;7.228;2023-02-16T12:39:37;11.40;99.90
6581;DHT22;3324;50.796;7.228;2023-02-16T12:45:02;11.40;99.90
6581;DHT22;3324;50.796;7.228;2023-02-16T12:47:36;11.40;99.90
6581;DHT22;3324;50.796;7.228;2023-02-16T12:50:19;11.40;99.90
6581;DHT22;3324;50.796;7.228;2023-02-16T12:55:24;11.40;99.90
6581;DHT22;3324;50.796;7.228;2023-02-16T12:57:58;11.40;99.90
6581;DHT22;3324;50.796;7.228;2023-02-16T13:00:56;11.50;99.90
6581;DHT22;3324;50.796;7.228;2023-02-16T13:06:02;11.50;99.90
6581;DHT22;3324;50.796;7.228;2023-02-16T13:08:35;11.50;99.90
6581;DHT22;3324;50.796;7.228;2023-02-16T13:14:17;11.50;99.90
6581;DHT22;3324;50.796;7.228;2023-02-16T13:16:54;11.60;99.90
6581;DHT22;3324;50.796;7.228;2023-02-16T13:19:21;11.40;99.90
6581;DHT22;3324;50.796;7.228;2023-02-16T13:24:31;11.50;99.90
6581;DHT22;3324;50.796;7.228;2023-02-16T13:29:59;11.60;99.90
6581;DHT22;3324;50.796;7.228;2023-02-16T13:32:59;11.60;99.90
6581;DHT22;3324;50.796;7.228;2023-02-16T13:35:39;11.60;99.90
6581;DHT22;3324;50.796;7.228;2023-02-16T13:44:08;11.50;99.90
6581;DHT22;3324;50.796;7.228;2023-02-16T13:46:43;11.50;99.90
6581;DHT22;3324;50.796;7.228;2023-02-16T13:52:03;11.60;99.90
6581;DHT22;3324;50.796;7.228;2023-02-16T13:54:34;11.50;99.90
6581;DHT22;3324;50.796;7.228;2023-02-16T13:57:01;11.50;99.90
6581;DHT22;3324;50.796;7.228;2023-02-16T14:02:02;11.40;99.90
6581;DHT22;3324;50.796;7.228;2023-02-16T14:19:59;11.40;99.90
6581;DHT22;3324;50.796;7.228;2023-02-16T14:22:52;11.50;99.90
6581;DHT22;3324;50.796;7.228;2023-02-16T14:28:03;11.60;99.90
6581;DHT22;3324;50.796;7.228;2023-02-16T14:31:09;11.70;99.90
6581;DHT22;3324;50.796;7.228;2023-02-16T14:33:59;11.70;99.90
6581;DHT22;3324;50.796;7.228;2023-02-16T14:36:25;11.70;99.90
6581;DHT22;3324;50.796;7.228;2023-02-16T14:38:54;11.70;99.90
6581;DHT22;3324;50.796;7.228;2023-02-16T14:41:23;11.70;99.90
6581;DHT22;3324;50.796;7.228;2023-02-16T14:43:52;11.80;99.90
6581;DHT22;3324;50.796;7.228;2023-02-16T14:55:02;11.80;99.90
6581;DHT22;3324;50.796;7.228;2023-02-16T15:03:22;11.90;99.90
6581;DHT22;3324;50.796;7.228;2023-02-16T15:06:00;11.90;99.90
6581;DHT22;3324;50.796;7.228;2023-02-16T15:08:37;12.00;99.90
6581;DHT22;3324;50.796;7.228;2023-02-16T15:11:21;11.90;99.90
6581;DHT22;3324;50.796;7.228;2023-02-16T15:13:49;11.90;99.90
6581;DHT22;3324;50.796;7.228;2023-02-16T15:16:18;12.00;99.90
6581;DHT22;3324;50.796;7.228;2023-02-16T15:18:50;12.10;99.90
6581;DHT22;3324;50.796;7.228;2023-02-16T15:21:22;12.00;99.90
6581;DHT22;3324;50.796;7.228;2023-02-16T15:23:54;12.00;99.90
6581;DHT22;3324;50.796;7.228;2023-02-16T15:26:34;12.10;99.90
6581;DHT22;3324;50.796;7.228;2023-02-16T15:29:03;12.20;99.90
6581;DHT22;3324;50.796;7.228;2023-02-16T15:31:36;12.10;99.90
6581;DHT22;3324;50.796;7.228;2023-02-16T15:34:04;12.10;99.90
6581;DHT22;3324;50.796;7.228;2023-02-16T15:36:44;11.90;99.90
6581;DHT22;3324;50.796;7.228;2023-02-16T15:39:15;12.00;99.90
6581;DHT22;3324;50.796;7.228;2023-02-16T15:41:45;12.00;99.90
6581;DHT22;3324;50.796;7.228;2023-02-16T15:44:30;11.90;99.90
6581;DHT22;3324;50.796;7.228;2023-02-16T15:47:08;12.00;99.90
6581;DHT22;3324;50.796;7.228;2023-02-16T15:49:33;12.00;99.90
6581;DHT22;3324;50.796;7.228;2023-02-16T15:52:06;12.10;99.90
6581;DHT22;3324;50.796;7.228;2023-02-16T15:54:38;12.00;99.90
6581;DHT22;3324;50.796;7.228;2023-02-16T15:59:48;12.00;99.90
6581;DHT22;3324;50.796;7.228;2023-02-16T16:02:39;12.00;99.90
6581;DHT22;3324;50.796;7.228;2023-02-16T16:05:08;11.90;99.90
6581;DHT22;3324;50.796;7.228;2023-02-16T16:07:36;11.90;99.90
6581;DHT22;3324;50.796;7.228;2023-02-16T16:10:25;11.90;99.90
6581;DHT22;3324;50.796;7.228;2023-02-16T16:12:56;11.80;99.90
6581;DHT22;3324;50.796;7.228;2023-02-16T16:15:24;11.80;99.90
6581;DHT22;3324;50.796;7.228;2023-02-16T16:17:52;11.80;99.90
6581;DHT22;3324;50.796;7.228;2023-02-16T16:22:58;11.70;99.90
6581;DHT22;3324;50.796;7.228;2023-02-16T16:25:38;11.60;99.90
6581;DHT22;3324;50.796;7.228;2023-02-16T16:28:06;11.60;99.90
6581;DHT22;3324;50.796;7.228;2023-02-16T16:30:34;11.50;99.90
6581;DHT22;3324;50.796;7.228;2023-02-16T16:35:47;11.50;99.90
6581;DHT22;3324;50.796;7.228;2023-02-16T16:38:39;11.40;99.90
6581;DHT22;3324;50.796;7.228;2023-02-16T16:41:25;11.40;99.90
6581;DHT22;3324;50.796;7.228;2023-02-16T16:43:56;11.30;99.90
6581;DHT22;3324;50.796;7.228;2023-02-16T16:46:26;11.30;99.90
6581;DHT22;3324;50.796;7.228;2023-02-16T16:48:55;11.20;99.90
6581;DHT22;3324;50.796;7.228;2023-02-16T16:56:24;11.10;99.90
6581;DHT22;3324;50.796;7.228;2023-02-16T16:58:51;11.10;99.90
6581;DHT22;3324;50.796;7.228;2023-02-16T17:01:19;11.10;99.90
6581;DHT22;3324;50.796;7.228;2023-02-16T17:03:45;11.10;99.90
6581;DHT22;3324;50.796;7.228;2023-02-16T17:06:11;11.10;99.90
6581;DHT22;3324;50.796;7.228;2023-02-16T17:08:38;11.00;99.90
6581;DHT22;3324;50.796;7.228;2023-02-16T17:11:05;11.00;99.90
6581;DHT22;3324;50.796;7.228;2023-02-16T17:13:34;11.00;99.90
6581;DHT22;3324;50.796;7.228;2023-02-16T17:16:05;11.00;99.90
6581;DHT22;3324;50.796;7.228;2023-02-16T17:18:31;11.00;99.90
6581;DHT22;3324;50.796;7.228;2023-02-16T17:20:57;11.00;99.90
6581;DHT22;3324;50.796;7.228;2023-02-16T17:23:23;11.00;99.90
6581;DHT22;3324;50.796;7.228;2023-02-16T17:25:49;10.90;99.90
6581;DHT22;3324;50.796;7.228;2023-02-16T17:28:16;10.90;99.90
6581;DHT22;3324;50.796;7.228;2023-02-16T17:30:42;10.90;99.90
6581;DHT22;3324;50.796;7.228;2023-02-16T17:33:08;10.90;99.90
6581;DHT22;3324;50.796;7.228;2023-02-16T17:35:37;10.90;99.90
6581;DHT22;3324;50.796;7.228;2023-02-16T17:38:12;10.80;99.90
6581;DHT22;3324;50.796;7.228;2023-02-16T17:40:38;10.80;99.90
6581;DHT22;3324;50.796;7.228;2023-02-16T17:43:15;10.80;99.90
6581;DHT22;3324;50.796;7.228;2023-02-16T17:45:42;10.80;99.90
6581;DHT22;3324;50.796;7.228;2023-02-16T17:48:20;10.80;99.90
6581;DHT22;3324;50.796;7.228;2023-02-16T17:50:46;10.80;99.90
6581;DHT22;3324;50.796;7.228;2023-02-16T17:53:20;10.80;99.90
6581;DHT22;3324;50.796;7.228;2023-02-16T17:55:47;10.70;99.90
6581;DHT22;3324;50.796;7.228;2023-02-16T17:58:14;10.80;99.90
6581;DHT22;3324;50.796;7.228;2023-02-16T18:00:40;10.80;99.90
6581;DHT22;3324;50.796;7.228;2023-02-16T18:03:06;10.80;99.90
6581;DHT22;3324;50.796;7.228;2023-02-16T18:05:32;10.80;99.90
6581;DHT22;3324;50.796;7.228;2023-02-16T18:07:58;10.80;99.90
6581;DHT22;3324;50.796;7.228;2023-02-16T18:10:40;10.80;99.90
6581;DHT22;3324;50.796;7.228;2023-02-16T18:13:07;10.80;99.90
6581;DHT22;3324;50.796;7.228;2023-02-16T18:15:35;10.80;99.90
6581;DHT22;3324;50.796;7.228;2023-02-16T18:18:00;10.80;99.90
6581;DHT22;3324;50.796;7.228;2023-02-16T18:20:26;10.80;99.90
6581;DHT22;3324;50.796;7.228;2023-02-16T18:22:52;10.80;99.90
6581;DHT22;3324;50.796;7.228;2023-02-16T18:25:18;10.90;99.90
6581;DHT22;3324;50.796;7.228;2023-02-16T18:27:44;10.90;99.90
6581;DHT22;3324;50.796;7.228;2023-02-16T18:30:11;10.90;99.90
6581;DHT22;3324;50.796;7.228;2023-02-16T18:32:37;10.90;99.90
6581;DHT22;3324;50.796;7.228;2023-02-16T18:35:03;10.90;99.90
6581;DHT22;3324;50.796;7.228;2023-02-16T18:37:30;10.90;99.90
6581;DHT22;3324;50.796;7.228;2023-02-16T18:39:55;10.90;99.90
6581;DHT22;3324;50.796;7.228;2023-02-16T18:42:21;10.90;99.90
6581;DHT22;3324;50.796;7.228;2023-02-16T18:44:47;10.80;99.90
6581;DHT22;3324;50.796;7.228;2023-02-16T18:47:13;10.90;99.90
6581;DHT22;3324;50.796;7.228;2023-02-16T18:49:39;10.90;99.90
6581;DHT22;3324;50.796;7.228;2023-02-16T18:52:06;10.90;99.90
6581;DHT22;3324;50.796;7.228;2023-02-16T18:54:32;10.80;99.90
6581;DHT22;3324;50.796;7.228;2023-02-16T18:56:57;10.90;99.90
6581;DHT22;3324;50.796;7.228;2023-02-16T18:59:23;10.90;99.90
6581;DHT22;3324;50.796;7.228;2023-02-16T19:01:54;11.00;99.90
6581;DHT22;3324;50.796;7.228;2023-02-16T19:04:20;10.90;99.90
6581;DHT22;3324;50.796;7.228;2023-02-16T19:06:46;11.00;99.90
6581;DHT22;3324;50.796;7.228;2023-02-16T19:09:11;10.90;99.90
6581;DHT22;3324;50.796;7.228;2023-02-16T19:11:37;10.90;99.90
6581;DHT22;3324;50.796;7.228;2023-02-16T19:14:03;10.90;99.90
6581;DHT22;3324;50.796;7.228;2023-02-16T19:16:28;10.90;99.90
6581;DHT22;3324;50.796;7.228;2023-02-16T19:18:54;10.90;99.90
6581;DHT22;3324;50.796;7.228;2023-02-16T19:21:20;10.90;99.90
6581;DHT22;3324;50.796;7.228;2023-02-16T19:23:45;10.90;99.90
6581;DHT22;3324;50.796;7.228;2023-02-16T19:26:13;10.90;99.90
6581;DHT22;3324;50.796;7.228;2023-02-16T19:28:40;10.90;99.90
6581;DHT22;3324;50.796;7.228;2023-02-16T19:31:08;11.00;99.90
6581;DHT22;3324;50.796;7.228;2023-02-16T19:33:40;10.90;99.90
6581;DHT22;3324;50.796;7.228;2023-02-16T19:36:08;10.90;99.90
6581;DHT22;3324;50.796;7.228;2023-02-16T19:38:35;10.90;99.90
6581;DHT22;3324;50.796;7.228;2023-02-16T19:41:08;10.90;99.90
6581;DHT22;3324;50.796;7.228;2023-02-16T19:43:34;10.90;99.90
6581;DHT22;3324;50.796;7.228;2023-02-16T19:46:02;10.90;99.90
6581;DHT22;3324;50.796;7.228;2023-02-16T19:48:28;10.90;99.90
6581;DHT22;3324;50.796;7.228;2023-02-16T19:50:57;10.90;99.90
6581;DHT22;3324;50.796;7.228;2023-02-16T19:53:23;10.90;99.90
6581;DHT22;3324;50.796;7.228;2023-02-16T19:55:49;10.90;99.90
6581;DHT22;3324;50.796;7.228;2023-02-16T19:58:17;10.90;99.90
6581;DHT22;3324;50.796;7.228;2023-02-16T20:00:42;10.90;99.90
6581;DHT22;3324;50.796;7.228;2023-02-16T20:03:08;10.90;99.90
6581;DHT22;3324;50.796;7.228;2023-02-16T20:05:34;11.00;99.90
6581;DHT22;3324;50.796;7.228;2023-02-16T20:08:00;11.00;99.90
6581;DHT22;3324;50.796;7.228;2023-02-16T20:10:25;10.90;99.90
6581;DHT22;3324;50.796;7.228;2023-02-16T20:12:52;10.90;99.90
6581;DHT22;3324;50.796;7.228;2023-02-16T20:15:18;11.00;99.90
6581;DHT22;3324;50.796;7.228;2023-02-16T20:17:44;11.10;99.90
6581;DHT22;3324;50.796;7.228;2023-02-16T20:20:09;11.00;99.90
6581;DHT22;3324;50.796;7.228;2023-02-16T20:22:35;11.00;99.90
6581;DHT22;3324;50.796;7.228;2023-02-16T20:25:01;10.90;99.90
6581;DHT22;3324;50.796;7.228;2023-02-16T20:27:27;10.80;99.90
6581;DHT22;3324;50.796;7.228;2023-02-16T20:29:53;10.80;99.90
6581;DHT22;3324;50.796;7.228;2023-02-16T20:32:25;10.80;99.90
6581;DHT22;3324;50.796;7.228;2023-02-16T20:34:51;10.80;99.90
6581;DHT22;3324;50.796;7.228;2023-02-16T20:37:17;10.80;99.90
6581;DHT22;3324;50.796;7.228;2023-02-16T20:39:44;10.80;99.90
6581;DHT22;3324;50.796;7.228;2023-02-16T20:42:10;10.90;99.90
6581;DHT22;3324;50.796;7.228;2023-02-16T20:44:35;10.80;99.90
6581;DHT22;3324;50.796;7.228;2023-02-16T20:47:01;10.80;99.90
6581;DHT22;3324;50.796;7.228;2023-02-16T20:49:27;10.80;99.90
6581;DHT22;3324;50.796;7.228;2023-02-16T20:51:52;10.80;99.90
6581;DHT22;3324;50.796;7.228;2023-02-16T20:54:18;10.80;99.90
6581;DHT22;3324;50.796;7.228;2023-02-16T20:56:43;10.70;99.90
6581;DHT22;3324;50.796;7.228;2023-02-16T20:59:10;10.70;99.90
6581;DHT22;3324;50.796;7.228;2023-02-16T21:01:40;10.70;99.90
6581;DHT22;3324;50.796;7.228;2023-02-16T21:04:08;10.80;99.90
6581;DHT22;3324;50.796;7.228;2023-02-16T21:06:35;10.90;99.90
6581;DHT22;3324;50.796;7.228;2023-02-16T21:09:02;10.90;99.90
6581;DHT22;3324;50.796;7.228;2023-02-16T21:11:28;10.90;99.90
6581;DHT22;3324;50.796;7.228;2023-02-16T21:13:54;11.00;99.90
6581;DHT22;3324;50.796;7.228;2023-02-16T21:16:20;10.80;99.90
6581;DHT22;3324;50.796;7.228;2023-02-16T21:18:46;10.80;99.90
6581;DHT22;3324;50.796;7.228;2023-02-16T21:21:12;10.60;99.90
6581;DHT22;3324;50.796;7.228;2023-02-16T21:23:44;10.60;99.90
6581;DHT22;3324;50.796;7.228;2023-02-16T21:26:11;10.50;99.90
6581;DHT22;3324;50.796;7.228;2023-02-16T21:28:37;10.50;99.90
6581;DHT22;3324;50.796;7.228;2023-02-16T21:31:04;10.40;99.90
6581;DHT22;3324;50.796;7.228;2023-02-16T21:33:31;10.30;99.90
6581;DHT22;3324;50.796;7.228;2023-02-16T21:36:11;10.40;99.90
6581;DHT22;3324;50.796;7.228;2023-02-16T21:38:37;10.30;99.90
6581;DHT22;3324;50.796;7.228;2023-02-16T21:41:08;10.30;99.90
6581;DHT22;3324;50.796;7.228;2023-02-16T21:46:22;10.20;99.90
6581;DHT22;3324;50.796;7.228;2023-02-16T21:48:48;10.10;99.90
6581;DHT22;3324;50.796;7.228;2023-02-16T21:51:21;10.10;99.90
6581;DHT22;3324;50.796;7.228;2023-02-16T21:53:48;10.10;99.90
6581;DHT22;3324;50.796;7.228;2023-02-16T21:58:58;10.10;99.90
6581;DHT22;3324;50.796;7.228;2023-02-16T22:01:29;10.20;99.90
6581;DHT22;3324;50.796;7.228;2023-02-16T22:03:56;10.10;99.90
6581;DHT22;3324;50.796;7.228;2023-02-16T22:06:35;10.10;99.90
6581;DHT22;3324;50.796;7.228;2023-02-16T22:09:08;10.10;99.90
6581;DHT22;3324;50.796;7.228;2023-02-16T22:11:34;10.00;99.90
6581;DHT22;3324;50.796;7.228;2023-02-16T22:14:00;10.00;99.90
6581;DHT22;3324;50.796;7.228;2023-02-16T22:16:28;10.00;99.90
6581;DHT22;3324;50.796;7.228;2023-02-16T22:18:59;10.00;99.90
6581;DHT22;3324;50.796;7.228;2023-02-16T22:21:26;10.10;99.90
6581;DHT22;3324;50.796;7.228;2023-02-16T22:23:52;10.10;99.90
6581;DHT22;3324;50.796;7.228;2023-02-16T22:26:23;10.00;99.90
6581;DHT22;3324;50.796;7.228;2023-02-16T22:28:49;10.10;99.90
6581;DHT22;3324;50.796;7.228;2023-02-16T22:31:16;10.00;99.90
6581;DHT22;3324;50.796;7.228;2023-02-16T22:33:42;10.00;99.90
6581;DHT22;3324;50.796;7.228;2023-02-16T22:36:08;10.00;99.90
6581;DHT22;3324;50.796;7.228;2023-02-16T22:38:41;10.00;99.90
6581;DHT22;3324;50.796;7.228;2023-02-16T22:41:08;10.00;99.90
6581;DHT22;3324;50.796;7.228;2023-02-16T22:43:34;10.10;99.90
6581;DHT22;3324;50.796;7.228;2023-02-16T22:46:04;10.10;99.90
6581;DHT22;3324;50.796;7.228;2023-02-16T22:48:30;10.20;99.90
6581;DHT22;3324;50.796;7.228;2023-02-16T22:50:57;10.20;99.90
6581;DHT22;3324;50.796;7.228;2023-02-16T22:53:23;10.20;99.90
6581;DHT22;3324;50.796;7.228;2023-02-16T22:55:49;10.10;99.90
6581;DHT22;3324;50.796;7.228;2023-02-16T22:58:14;10.00;99.90
6581;DHT22;3324;50.796;7.228;2023-02-16T23:00:40;10.00;99.90
6581;DHT22;3324;50.796;7.228;2023-02-16T23:03:05;10.00;99.90
6581;DHT22;3324;50.796;7.228;2023-02-16T23:05:31;10.00;99.90
6581;DHT22;3324;50.796;7.228;2023-02-16T23:07:56;10.00;99.90
6581;DHT22;3324;50.796;7.228;2023-02-16T23:10:22;10.00;99.90
6581;DHT22;3324;50.796;7.228;2023-02-16T23:12:47;10.00;99.90
6581;DHT22;3324;50.796;7.228;2023-02-16T23:15:13;9.90;99.90
6581;DHT22;3324;50.796;7.228;2023-02-16T23:17:38;9.90;99.90
6581;DHT22;3324;50.796;7.228;2023-02-16T23:20:05;9.90;99.90
6581;DHT22;3324;50.796;7.228;2023-02-16T23:22:30;9.90;99.90
6581;DHT22;3324;50.796;7.228;2023-02-16T23:24:56;9.90;99.90
6581;DHT22;3324;50.796;7.228;2023-02-16T23:27:40;9.90;99.90
6581;DHT22;3324;50.796;7.228;2023-02-16T23:30:06;9.90;99.90
6581;DHT22;3324;50.796;7.228;2023-02-16T23:32:32;9.90;99.90
6581;DHT22;3324;50.796;7.228;2023-02-16T23:34:57;9.90;99.90
6581;DHT22;3324;50.796;7.228;2023-02-16T23:37:27;9.90;99.90
6581;DHT22;3324;50.796;7.228;2023-02-16T23:39:53;10.00;99.90
6581;DHT22;3324;50.796;7.228;2023-02-16T23:42:18;10.00;99.90
6581;DHT22;3324;50.796;7.228;2023-02-16T23:44:44;10.00;99.90
6581;DHT22;3324;50.796;7.228;2023-02-16T23:47:10;10.00;99.90
6581;DHT22;3324;50.796;7.228;2023-02-16T23:49:35;10.00;99.90
6581;DHT22;3324;50.796;7.228;2023-02-16T23:52:01;10.00;99.90
6581;DHT22;3324;50.796;7.228;2023-02-16T23:54:26;9.90;99.90
6581;DHT22;3324;50.796;7.228;2023-02-16T23:56:52;10.00;99.90
6581;DHT22;3324;50.796;7.228;2023-02-16T23:59:17;9.90;99.90
